Time;durP1;ratioP1;P1;durP2;ratioP2;P2;SDS_P1;SDS_P2;PMS_P1;PMS_P2;Temp;Humidity;BMP_temperature;BMP_pressure;BME280_temperature;BME280_humidity;BME280_pressure;Samples;Min_cycle;Max_cycle;Signal;HPM_P1;HPM_P2
2023/01/07 00:01:29;;;;;;;;;;;;;;;28.02;26.34;101619.66;5043231;28;1906;-12
2023/01/07 00:03:56;;;;;;;;;;;;;;;27.94;26.69;101621.38;5056715;28;1286;-12
2023/01/07 00:06:22;;;;;;;;;;;;;;;27.69;27.09;101617.75;5056542;28;1047;-12
2023/01/07 00:08:48;;;;;;;;;;;;;;;27.69;27.04;101613.22;5055704;28;1136;-12
2023/01/07 00:11:18;;;;;;;;;;;;;;;27.80;26.79;101622.84;5056860;28;1011;-12
2023/01/07 00:13:43;;;;;;;;;;;;;;;28.07;26.22;101625.41;5038303;28;2429;-12
2023/01/07 00:16:09;;;;;;;;;;;;;;;27.84;26.58;101629.59;5048685;28;1029;-12
2023/01/07 00:18:35;;;;;;;;;;;;;;;27.74;26.88;101637.03;5038640;28;972;-12
2023/01/07 00:21:01;;;;;;;;;;;;;;;27.73;26.88;101635.34;5036638;28;1894;-12
2023/01/07 00:23:26;;;;;;;;;;;;;;;28.04;26.56;101648.25;5055347;28;1045;-12
2023/01/07 00:25:51;;;;;;;;;;;;;;;27.86;26.61;101651.09;5044782;28;1095;-12
2023/01/07 00:28:17;;;;;;;;;;;;;;;27.73;26.72;101647.00;5050036;28;1079;-12
2023/01/07 00:30:42;;;;;;;;;;;;;;;27.86;26.78;101648.41;5048707;28;1009;-12
2023/01/07 00:33:10;;;;;;;;;;;;;;;28.12;26.33;101650.09;5038278;28;1017;-12
2023/01/07 00:35:39;;;;;;;;;;;;;;;27.88;26.40;101651.75;5037084;28;1132;-12
2023/01/07 00:38:04;;;;;;;;;;;;;;;27.72;27.08;101657.97;5049567;28;1025;-12
2023/01/07 00:40:30;;;;;;;;;;;;;;;27.74;26.84;101664.91;5049301;28;1963;-12
2023/01/07 00:43:05;;;;;;;;;;;;;;;27.89;26.83;101661.56;5036558;28;1833;-12
2023/01/07 00:45:31;;;;;;;;;;;;;;;28.05;26.29;101659.88;5050103;28;953;-12
2023/01/07 00:47:57;;;;;;;;;;;;;;;27.82;27.02;101665.94;5043126;28;1092;-12
2023/01/07 00:50:23;;;;;;;;;;;;;;;27.76;27.11;101664.72;5056584;28;1191;-12
2023/01/07 00:52:48;;;;;;;;;;;;;;;27.92;26.70;101654.97;5050750;28;1842;-12
2023/01/07 00:55:14;;;;;;;;;;;;;;;28.19;26.19;101658.38;5042537;28;1103;-12
2023/01/07 00:57:39;;;;;;;;;;;;;;;27.79;26.89;101653.63;5043747;28;1056;-12
2023/01/07 01:00:05;;;;;;;;;;;;;;;27.70;27.03;101655.44;5067443;28;1059;-12
2023/01/07 01:02:30;;;;;;;;;;;;;;;27.82;27.13;101647.88;5056158;28;1901;-12
2023/01/07 01:04:56;;;;;;;;;;;;;;;28.06;26.54;101664.31;5056585;28;1222;-12
2023/01/07 01:07:21;;;;;;;;;;;;;;;27.94;26.79;101664.63;5069960;28;980;-12
2023/01/07 01:09:46;;;;;;;;;;;;;;;27.79;26.92;101672.53;5076175;28;1094;-12
2023/01/07 01:12:11;;;;;;;;;;;;;;;27.80;26.87;101667.97;5075780;28;1199;-12
2023/01/07 01:14:37;;;;;;;;;;;;;;;27.91;26.70;101667.63;5061428;28;2475;-12
2023/01/07 01:17:02;;;;;;;;;;;;;;;28.02;26.40;101677.31;5072372;28;1225;-12
2023/01/07 01:19:27;;;;;;;;;;;;;;;27.73;27.18;101673.19;5066300;28;1047;-12
2023/01/07 01:21:52;;;;;;;;;;;;;;;27.65;27.10;101663.16;5069329;28;1894;-12
2023/01/07 01:24:18;;;;;;;;;;;;;;;27.84;26.97;101670.16;5064794;28;1012;-12
2023/01/07 01:26:43;;;;;;;;;;;;;;;28.14;26.29;101669.72;5062559;28;1110;-12
2023/01/07 01:29:08;;;;;;;;;;;;;;;27.79;26.82;101672.53;5066742;28;1187;-12
2023/01/07 01:31:34;;;;;;;;;;;;;;;27.83;27.15;101670.31;5070127;28;1045;-12
2023/01/07 01:33:59;;;;;;;;;;;;;;;27.93;27.04;101670.19;5075687;28;1090;-11
2023/01/07 01:36:24;;;;;;;;;;;;;;;28.21;26.21;101675.31;5044133;28;1330;-12
2023/01/07 01:38:50;;;;;;;;;;;;;;;27.57;27.13;101668.53;5075889;28;1110;-12
2023/01/07 01:41:15;;;;;;;;;;;;;;;27.68;27.37;101670.97;5059512;28;1959;-12
2023/01/07 01:43:41;;;;;;;;;;;;;;;27.84;27.13;101658.53;5041015;28;2240;-12
2023/01/07 01:46:26;;;;;;;;;;;;;;;28.03;26.67;101651.13;5075663;28;1055;-12
2023/01/07 01:49:12;;;;;;;;;;;;;;;27.97;26.70;101637.25;5058042;28;1123;-12
2023/01/07 01:51:37;;;;;;;;;;;;;;;27.80;27.08;101636.38;5061231;28;1065;-12
2023/01/07 01:54:03;;;;;;;;;;;;;;;27.75;26.96;101642.28;5043647;28;1052;-12
2023/01/07 01:56:31;;;;;;;;;;;;;;;28.01;26.70;101658.53;5063309;28;1024;-12
2023/01/07 01:58:57;;;;;;;;;;;;;;;27.93;26.79;101641.28;5043912;28;1251;-12
2023/01/07 02:01:22;;;;;;;;;;;;;;;27.72;27.12;101641.75;5068069;28;1901;-12
2023/01/07 02:03:48;;;;;;;;;;;;;;;27.66;27.22;101628.88;5069582;28;1123;-12
2023/01/07 02:06:17;;;;;;;;;;;;;;;27.83;27.04;101640.59;5050439;28;1532;-12
2023/01/07 02:08:42;;;;;;;;;;;;;;;28.10;26.39;101630.47;5068689;28;1009;-12
2023/01/07 02:11:14;;;;;;;;;;;;;;;27.79;26.53;101612.22;5063289;28;1106;-12
2023/01/07 02:13:50;;;;;;;;;;;;;;;27.75;26.96;101626.06;5059695;28;2375;-12
2023/01/07 02:16:34;;;;;;;;;;;;;;;27.81;26.97;101631.81;5048031;28;1020;-12
2023/01/07 02:18:59;;;;;;;;;;;;;;;28.08;26.60;101633.34;5068795;28;1035;-12
2023/01/07 02:21:34;;;;;;;;;;;;;;;27.85;26.76;101638.56;5068669;28;1898;-12
2023/01/07 02:24:18;;;;;;;;;;;;;;;27.79;27.04;101639.25;5055472;28;1032;-12
2023/01/07 02:26:55;;;;;;;;;;;;;;;27.71;27.42;101637.38;5071863;28;1114;-12
2023/01/07 02:29:20;;;;;;;;;;;;;;;27.22;26.56;101506.50;5063556;28;1000;-12
2023/01/07 02:31:49;;;;;;;;;;;;;;;27.96;26.77;101627.44;5073841;28;1021;-12
2023/01/07 02:34:28;;;;;;;;;;;;;;;27.87;26.78;101631.16;5063156;28;858;-12
2023/01/07 02:36:59;;;;;;;;;;;;;;;27.61;27.28;101635.63;5046508;28;1135;-12
2023/01/07 02:39:41;;;;;;;;;;;;;;;27.87;27.03;101645.53;5059854;28;1019;-12
2023/01/07 02:42:08;;;;;;;;;;;;;;;28.18;26.40;101635.03;5040775;28;1894;-12
2023/01/07 02:44:37;;;;;;;;;;;;;;;27.70;27.04;101636.53;5046929;28;1817;-12
2023/01/07 02:47:10;;;;;;;;;;;;;;;27.70;27.01;101635.66;5050366;28;1118;-12
2023/01/07 02:49:35;;;;;;;;;;;;;;;27.71;27.17;101621.97;5076246;28;1131;-12
2023/01/07 02:52:20;;;;;;;;;;;;;;;28.07;26.66;101626.28;5067234;28;1012;-12
2023/01/07 02:54:47;;;;;;;;;;;;;;;27.92;26.66;101619.81;5058885;28;1064;-12
2023/01/07 02:57:38;;;;;;;;;;;;;;;27.74;27.19;101615.41;5071628;28;1076;-12
2023/01/07 03:00:13;;;;;;;;;;;;;;;27.82;26.97;101609.16;5062533;28;1253;-12
2023/01/07 03:02:51;;;;;;;;;;;;;;;28.10;26.66;101614.25;5058436;28;1983;-12
2023/01/07 03:05:16;;;;;;;;;;;;;;;27.80;26.83;101613.88;5028092;28;1115;-12
2023/01/07 03:07:53;;;;;;;;;;;;;;;27.69;27.25;101615.91;5051775;28;1057;-12
2023/01/07 03:10:36;;;;;;;;;;;;;;;27.66;27.28;101599.16;5051625;28;903;-12
2023/01/07 03:13:12;;;;;;;;;;;;;;;28.02;27.00;101616.97;5056124;28;2576;-12
2023/01/07 03:15:42;;;;;;;;;;;;;;;27.96;26.61;101618.50;5033832;28;1069;-12
2023/01/07 03:18:19;;;;;;;;;;;;;;;27.77;27.05;101616.94;5049090;28;1029;-12
2023/01/07 03:20:45;;;;;;;;;;;;;;;27.62;27.54;101613.00;5057752;28;1951;-12
2023/01/07 03:23:11;;;;;;;;;;;;;;;27.88;27.36;101619.31;5040138;28;1036;-12
2023/01/07 03:25:41;;;;;;;;;;;;;;;28.28;26.49;101610.56;5039848;28;1294;-12
2023/01/07 03:28:06;;;;;;;;;;;;;;;27.89;27.08;101607.50;5039960;28;1036;-12
2023/01/07 03:30:31;;;;;;;;;;;;;;;27.72;27.53;101612.88;5057849;28;1083;-12
2023/01/07 03:32:59;;;;;;;;;;;;;;;27.77;27.38;101620.50;5044380;28;1176;-12
2023/01/07 03:35:24;;;;;;;;;;;;;;;28.10;26.51;101625.06;5020193;28;1078;-12
2023/01/07 03:37:50;;;;;;;;;;;;;;;27.82;26.98;101628.09;5033384;28;1152;-12
2023/01/07 03:40:15;;;;;;;;;;;;;;;27.79;27.21;101626.56;5026921;28;1025;-11
2023/01/07 03:42:40;;;;;;;;;;;;;;;27.57;27.41;101631.56;5039552;28;1906;-12
2023/01/07 03:45:15;;;;;;;;;;;;;;;27.82;27.15;101623.53;5056895;28;2612;-12
2023/01/07 03:47:50;;;;;;;;;;;;;;;28.15;26.48;101632.69;5042857;28;1196;-12
2023/01/07 03:50:16;;;;;;;;;;;;;;;27.75;27.14;101634.16;5039520;28;1126;-12
2023/01/07 03:52:41;;;;;;;;;;;;;;;27.67;27.48;101625.16;5044300;28;1143;-12
2023/01/07 03:55:06;;;;;;;;;;;;;;;27.70;27.42;101620.31;5048113;28;1100;-12
2023/01/07 03:57:32;;;;;;;;;;;;;;;27.98;27.21;101621.84;5050446;28;1040;-12
2023/01/07 03:59:57;;;;;;;;;;;;;;;27.94;26.84;101623.22;5057477;28;1193;-12
2023/01/07 04:02:23;;;;;;;;;;;;;;;27.75;27.35;101626.06;5061093;28;1975;-12
2023/01/07 04:04:48;;;;;;;;;;;;;;;27.61;27.50;101621.28;5065920;28;1024;-12
2023/01/07 04:07:13;;;;;;;;;;;;;;;27.77;27.42;101625.03;5063653;28;977;-12
2023/01/07 04:09:39;;;;;;;;;;;;;;;28.09;26.84;101628.81;5076937;28;1086;-12
2023/01/07 04:12:04;;;;;;;;;;;;;;;27.75;27.37;101620.66;5074757;28;1167;-12
2023/01/07 04:14:29;;;;;;;;;;;;;;;27.72;27.56;101617.44;5070256;28;2577;-12
2023/01/07 04:16:54;;;;;;;;;;;;;;;27.72;27.53;101615.59;5069102;28;1166;-12
2023/01/07 04:19:20;;;;;;;;;;;;;;;27.88;27.51;101619.31;5057131;28;1123;-11
2023/01/07 04:21:45;;;;;;;;;;;;;;;28.14;26.81;101621.03;5060739;28;1902;-12
2023/01/07 04:24:11;;;;;;;;;;;;;;;27.70;26.83;101631.13;5068246;28;1170;-12
2023/01/07 04:26:36;;;;;;;;;;;;;;;27.57;27.36;101631.56;5076227;28;1036;-12
2023/01/07 04:29:01;;;;;;;;;;;;;;;27.57;27.23;101636.97;5066006;28;1111;-12
2023/01/07 04:31:26;;;;;;;;;;;;;;;27.92;26.99;101634.19;5070096;28;1040;-12
2023/01/07 04:33:52;;;;;;;;;;;;;;;27.70;27.02;101609.50;5066952;28;1009;-12
2023/01/07 04:36:17;;;;;;;;;;;;;;;27.69;27.26;101636.69;5058948;28;1196;-12
2023/01/07 04:38:43;;;;;;;;;;;;;;;27.64;27.43;101629.06;5056465;28;1032;-12
2023/01/07 04:41:08;;;;;;;;;;;;;;;27.69;24.92;101633.97;5073575;28;1950;-11
2023/01/07 04:43:35;;;;;;;;;;;;;;;27.56;24.48;101637.13;5076358;28;2200;-12
2023/01/07 04:46:00;;;;;;;;;;;;;;;27.40;24.85;101627.97;5074917;28;1027;-12
2023/01/07 04:48:25;;;;;;;;;;;;;;;26.93;20.83;101631.91;5076134;28;1323;-12
2023/01/07 04:50:50;;;;;;;;;;;;;;;26.70;20.70;101635.16;5075834;28;1222;-12
2023/01/07 04:53:16;;;;;;;;;;;;;;;26.64;24.19;101632.09;5076435;28;1246;-12
2023/01/07 04:55:41;;;;;;;;;;;;;;;26.87;25.01;101634.28;5076046;28;1198;-12
2023/01/07 04:58:06;;;;;;;;;;;;;;;27.30;23.78;101617.28;5044199;28;1063;-11
2023/01/07 05:00:32;;;;;;;;;;;;;;;27.60;23.47;101627.66;5055494;28;1991;-12
2023/01/07 05:02:57;;;;;;;;;;;;;;;27.58;23.21;101614.31;5063313;28;1096;-12
2023/01/07 05:05:22;;;;;;;;;;;;;;;27.43;21.92;101615.97;5074821;28;1146;-12
2023/01/07 05:07:47;;;;;;;;;;;;;;;26.91;23.05;101618.59;5076163;28;1107;-12
2023/01/07 05:10:13;;;;;;;;;;;;;;;27.00;23.39;101614.94;5075756;28;1035;-12
2023/01/07 05:12:38;;;;;;;;;;;;;;;27.32;22.79;101623.38;5068821;28;1055;-12
2023/01/07 05:15:04;;;;;;;;;;;;;;;27.38;22.26;101620.00;5056079;28;2634;-12
2023/01/07 05:17:29;;;;;;;;;;;;;;;27.57;21.97;101628.88;5069234;28;1135;-12
2023/01/07 05:19:54;;;;;;;;;;;;;;;27.66;21.49;101610.78;5055976;28;1186;-12
2023/01/07 05:22:19;;;;;;;;;;;;;;;27.48;20.14;101619.03;5063097;28;1910;-12
2023/01/07 05:24:45;;;;;;;;;;;;;;;26.97;20.72;101617.09;5062696;28;1040;-12
2023/01/07 05:27:10;;;;;;;;;;;;;;;27.00;22.56;101620.34;5068810;28;1124;-12
2023/01/07 05:29:35;;;;;;;;;;;;;;;27.37;21.57;101620.19;5069487;28;1059;-12
2023/01/07 05:32:01;;;;;;;;;;;;;;;26.60;21.01;101629.88;5069677;28;1173;-12
2023/01/07 05:34:26;;;;;;;;;;;;;;;26.17;22.18;101625.97;5069179;28;1073;-12
2023/01/07 05:36:51;;;;;;;;;;;;;;;26.60;22.40;101624.47;5069323;28;1047;-12
2023/01/07 05:39:16;;;;;;;;;;;;;;;26.65;22.18;101628.41;5069811;28;1005;-12
2023/01/07 05:41:42;;;;;;;;;;;;;;;26.91;21.90;101632.09;5069199;28;1944;-12
2023/01/07 05:44:07;;;;;;;;;;;;;;;27.17;21.61;101625.84;5058007;28;2325;-12
2023/01/07 05:46:32;;;;;;;;;;;;;;;27.24;21.12;101618.78;5043650;28;1032;-12
2023/01/07 05:48:58;;;;;;;;;;;;;;;27.47;20.82;101620.03;5063055;28;1120;-12
2023/01/07 05:51:23;;;;;;;;;;;;;;;27.60;20.76;101630.38;5068952;28;1063;-12
2023/01/07 05:53:48;;;;;;;;;;;;;;;27.85;20.78;101628.63;5063987;28;1108;-13
2023/01/07 05:56:13;;;;;;;;;;;;;;;26.89;21.15;101621.44;5063584;28;1259;-12
2023/01/07 05:58:39;;;;;;;;;;;;;;;26.65;21.12;101616.75;5067198;28;1056;-12
2023/01/07 06:01:04;;;;;;;;;;;;;;;27.35;21.44;101627.59;5070454;28;1906;-12
2023/01/07 06:03:29;;;;;;;;;;;;;;;27.51;21.19;101629.50;5069607;28;1261;-12
2023/01/07 06:05:54;;;;;;;;;;;;;;;27.68;21.26;101630.44;5062366;28;1199;-12
2023/01/07 06:08:20;;;;;;;;;;;;;;;27.79;20.87;101648.22;5075255;28;1071;-12
2023/01/07 06:10:45;;;;;;;;;;;;;;;27.89;20.98;101641.78;5066641;28;1107;-12
2023/01/07 06:13:10;;;;;;;;;;;;;;;27.09;21.21;101655.53;5076580;28;1928;-12
2023/01/07 06:15:36;;;;;;;;;;;;;;;27.08;22.10;101654.66;5058216;28;1202;-12
2023/01/07 06:18:01;;;;;;;;;;;;;;;27.29;22.23;101656.13;5076644;28;975;-13
2023/01/07 06:20:28;;;;;;;;;;;;;;;27.45;22.10;101655.34;5059606;28;1957;-13
2023/01/07 06:22:53;;;;;;;;;;;;;;;27.52;21.82;101652.81;5060114;28;861;-13
2023/01/07 06:25:19;;;;;;;;;;;;;;;27.16;20.51;101655.72;5072092;28;1086;-13
2023/01/07 06:27:44;;;;;;;;;;;;;;;26.71;21.37;101656.59;5063168;28;1012;-13
2023/01/07 06:30:10;;;;;;;;;;;;;;;26.97;22.38;101658.47;5065095;28;987;-12
2023/01/07 06:32:36;;;;;;;;;;;;;;;27.21;21.88;101653.38;5059041;28;1199;-13
2023/01/07 06:35:01;;;;;;;;;;;;;;;27.37;21.73;101650.75;5067240;28;1167;-12
2023/01/07 06:37:26;;;;;;;;;;;;;;;27.65;21.26;101655.06;5066437;28;1087;-13
2023/01/07 06:39:51;;;;;;;;;;;;;;;26.91;20.65;101650.97;5060590;28;1000;-13
2023/01/07 06:42:17;;;;;;;;;;;;;;;26.98;21.21;101646.66;5071334;28;1897;-13
2023/01/07 06:44:42;;;;;;;;;;;;;;;27.45;21.92;101646.38;5071932;28;2156;-13
2023/01/07 06:47:07;;;;;;;;;;;;;;;27.66;21.32;101643.22;5071580;28;892;-13
2023/01/07 06:49:33;;;;;;;;;;;;;;;27.31;20.69;101648.69;5072183;28;992;-12
2023/01/07 06:51:58;;;;;;;;;;;;;;;26.91;21.36;101650.97;5078252;28;1112;-13
2023/01/07 06:54:23;;;;;;;;;;;;;;;26.76;22.49;101639.91;5078253;28;1055;-12
2023/01/07 06:56:49;;;;;;;;;;;;;;;26.95;21.77;101646.97;5058383;28;1107;-13
2023/01/07 06:59:14;;;;;;;;;;;;;;;27.29;21.09;101648.03;5058562;28;1114;-13
2023/01/07 07:01:39;;;;;;;;;;;;;;;27.49;20.92;101650.47;5067641;28;1971;-12
2023/01/07 07:04:05;;;;;;;;;;;;;;;27.59;20.75;101653.84;5060865;28;1075;-12
2023/01/07 07:06:30;;;;;;;;;;;;;;;27.27;20.62;101655.44;5068606;28;1072;-13
2023/01/07 07:08:55;;;;;;;;;;;;;;;27.15;21.13;101652.16;5058683;28;1009;-13
2023/01/07 07:11:20;;;;;;;;;;;;;;;27.41;21.55;101666.63;5067298;28;902;-12
2023/01/07 07:13:46;;;;;;;;;;;;;;;27.06;20.93;101658.53;5072866;28;1054;-13
2023/01/07 07:16:11;;;;;;;;;;;;;;;26.70;21.52;101659.47;5067883;28;1119;-12
2023/01/07 07:18:36;;;;;;;;;;;;;;;27.15;21.80;101654.88;5071401;28;1033;-13
2023/01/07 07:21:02;;;;;;;;;;;;;;;27.36;21.63;101649.03;5066275;28;1906;-12
2023/01/07 07:23:27;;;;;;;;;;;;;;;27.71;21.16;101657.13;5069880;28;1056;-13
2023/01/07 07:25:52;;;;;;;;;;;;;;;27.24;21.60;101659.28;5057591;28;1491;-13
2023/01/07 07:28:17;;;;;;;;;;;;;;;27.07;21.25;101655.69;5075394;28;1124;-12
2023/01/07 07:30:43;;;;;;;;;;;;;;;27.60;21.20;101658.25;5075998;28;1082;-12
2023/01/07 07:33:08;;;;;;;;;;;;;;;26.86;21.97;101653.34;5062565;28;1396;-13
2023/01/07 07:35:33;;;;;;;;;;;;;;;26.89;22.44;101650.31;5063037;28;1417;-12
2023/01/07 07:37:59;;;;;;;;;;;;;;;27.25;22.17;101649.34;5077482;28;1020;-13
2023/01/07 07:40:24;;;;;;;;;;;;;;;27.56;21.74;101650.66;5072602;28;1159;-12
2023/01/07 07:42:49;;;;;;;;;;;;;;;27.46;21.08;101648.91;5064123;28;1971;-12
2023/01/07 07:45:15;;;;;;;;;;;;;;;27.03;21.38;101646.19;5070720;28;2622;-12
2023/01/07 07:47:41;;;;;;;;;;;;;;;26.75;21.92;101647.19;5076324;28;984;-12
2023/01/07 07:50:06;;;;;;;;;;;;;;;26.67;22.05;101640.88;5065029;28;1080;-12
2023/01/07 07:52:31;;;;;;;;;;;;;;;26.61;21.95;101642.38;5070779;28;1119;-12
2023/01/07 07:54:57;;;;;;;;;;;;;;;26.51;21.86;101640.59;5070517;28;1038;-13
2023/01/07 07:57:22;;;;;;;;;;;;;;;26.59;22.04;101628.19;5070516;28;1327;-12
2023/01/07 07:59:47;;;;;;;;;;;;;;;26.69;21.90;101628.09;5056880;28;1032;-12
2023/01/07 08:02:12;;;;;;;;;;;;;;;26.41;22.07;101626.38;5063089;28;1899;-12
2023/01/07 08:04:38;;;;;;;;;;;;;;;26.56;23.03;101633.91;5077088;28;1031;-12
2023/01/07 08:07:03;;;;;;;;;;;;;;;26.80;22.99;101632.34;5076476;28;968;-13
2023/01/07 08:09:28;;;;;;;;;;;;;;;27.19;22.45;101641.88;5077003;28;1027;-13
2023/01/07 08:11:54;;;;;;;;;;;;;;;26.55;22.39;101641.16;5063045;28;1194;-13
2023/01/07 08:14:19;;;;;;;;;;;;;;;26.34;22.16;101639.63;5072239;28;2215;-12
2023/01/07 08:16:44;;;;;;;;;;;;;;;26.09;22.60;101635.84;5045134;28;1198;-12
2023/01/07 08:19:10;;;;;;;;;;;;;;;26.12;22.67;101643.63;5057385;28;1012;-13
2023/01/07 08:21:35;;;;;;;;;;;;;;;26.23;22.82;101643.41;5039030;28;1949;-13
2023/01/07 08:24:00;;;;;;;;;;;;;;;26.38;22.20;101642.88;5071513;28;870;-13
2023/01/07 08:26:26;;;;;;;;;;;;;;;26.37;22.83;101641.19;5067349;28;1135;-13
2023/01/07 08:28:51;;;;;;;;;;;;;;;26.49;23.31;101634.50;5059061;28;1099;-13
2023/01/07 08:31:16;;;;;;;;;;;;;;;26.70;23.29;101636.03;5056803;28;984;-13
2023/01/07 08:33:41;;;;;;;;;;;;;;;26.73;22.60;101633.00;5070213;28;1207;-12
2023/01/07 08:36:07;;;;;;;;;;;;;;;26.56;23.39;101636.59;5066824;28;910;-12
2023/01/07 08:38:33;;;;;;;;;;;;;;;26.40;23.25;101639.03;5059010;28;1119;-12
2023/01/07 08:40:58;;;;;;;;;;;;;;;26.53;22.96;101637.75;5066913;28;1898;-12
2023/01/07 08:43:24;;;;;;;;;;;;;;;26.35;24.08;101640.47;5062584;28;1833;-13
2023/01/07 08:45:49;;;;;;;;;;;;;;;26.73;23.92;101642.94;5065720;28;1020;-13
2023/01/07 08:48:15;;;;;;;;;;;;;;;27.16;23.06;101636.81;5069513;28;1072;-13
2023/01/07 08:50:40;;;;;;;;;;;;;;;26.87;22.39;101626.19;5067112;28;1020;-13
2023/01/07 08:53:05;;;;;;;;;;;;;;;26.63;22.06;101616.91;5071828;28;1089;-13
2023/01/07 08:55:31;;;;;;;;;;;;;;;26.39;22.53;101628.41;5066934;28;1099;-13
2023/01/07 08:57:56;;;;;;;;;;;;;;;26.36;22.06;101613.34;5061326;28;1035;-13
2023/01/07 09:00:21;;;;;;;;;;;;;;;26.44;21.87;101614.44;5064169;28;1040;-13
2023/01/07 09:02:48;;;;;;;;;;;;;;;26.53;21.87;101606.22;5056841;28;1905;-13
2023/01/07 09:05:13;;;;;;;;;;;;;;;26.42;22.14;101603.78;5054219;28;1012;-13
2023/01/07 09:07:38;;;;;;;;;;;;;;;24.44;23.33;101594.91;5073647;28;1159;-12
2023/01/07 09:10:04;;;;;;;;;;;;;;;25.15;23.44;101607.19;5074461;28;1003;-12
2023/01/07 09:12:29;;;;;;;;;;;;;;;25.35;22.43;101593.63;5069919;28;1179;-12
2023/01/07 09:14:54;;;;;;;;;;;;;;;25.37;22.49;101597.88;5072536;28;2073;-12
2023/01/07 09:17:20;;;;;;;;;;;;;;;25.50;22.27;101592.13;5070559;28;1076;-12
2023/01/07 09:19:45;;;;;;;;;;;;;;;25.37;22.04;101583.56;5055661;28;976;-12
2023/01/07 09:22:10;;;;;;;;;;;;;;;25.22;21.92;101580.53;5064645;28;1894;-12
2023/01/07 09:24:36;;;;;;;;;;;;;;;25.35;22.07;101588.25;5064596;28;1325;-12
2023/01/07 09:27:01;;;;;;;;;;;;;;;25.46;21.54;101585.34;5075738;28;1234;-12
2023/01/07 09:29:26;;;;;;;;;;;;;;;25.45;22.02;101578.25;5070952;28;1076;-12
2023/01/07 09:31:52;;;;;;;;;;;;;;;25.34;21.67;101573.91;5067260;28;1109;-12
2023/01/07 09:34:17;;;;;;;;;;;;;;;25.28;21.80;101571.84;5057971;28;1246;-12
2023/01/07 09:36:42;;;;;;;;;;;;;;;25.71;22.40;101571.31;5058382;28;938;-12
2023/01/07 09:39:09;;;;;;;;;;;;;;;25.59;21.49;101567.97;5071575;28;1218;-12
2023/01/07 09:41:34;;;;;;;;;;;;;;;25.51;21.34;101541.78;5055561;28;1899;-12
2023/01/07 09:44:06;;;;;;;;;;;;;;;25.88;21.20;101554.28;5056824;28;1881;-12
2023/01/07 09:46:31;;;;;;;;;;;;;;;25.25;21.27;101558.66;5052058;28;1071;-12
2023/01/07 09:48:58;;;;;;;;;;;;;;;24.89;22.03;101543.25;5074538;28;1122;-12
2023/01/07 09:51:27;;;;;;;;;;;;;;;25.59;21.42;101549.09;5052716;28;1028;-12
2023/01/07 09:53:54;;;;;;;;;;;;;;;25.62;20.92;101519.16;5072608;28;1127;-12
2023/01/07 09:56:23;;;;;;;;;;;;;;;25.87;21.44;101536.44;5068917;28;1089;-12
2023/01/07 09:58:48;;;;;;;;;;;;;;;25.84;21.14;101533.19;5062338;28;1187;-12
2023/01/07 10:01:20;;;;;;;;;;;;;;;25.82;21.21;101530.66;5062835;28;1914;-12
2023/01/07 10:03:48;;;;;;;;;;;;;;;26.14;20.77;101531.09;5053538;28;993;-12
2023/01/07 10:06:34;;;;;;;;;;;;;;;25.49;21.27;101533.03;5078533;28;1028;-12
2023/01/07 10:09:08;;;;;;;;;;;;;;;25.28;21.04;101516.13;5065025;28;1794;-11
2023/01/07 10:11:39;;;;;;;;;;;;;;;25.35;20.83;101507.44;5078759;28;1071;-11
2023/01/07 10:14:43;;;;;;;;;;;;;;;25.31;20.73;101514.97;5068566;28;2002;-11
2023/01/07 10:17:08;;;;;;;;;;;;;;;25.63;20.47;101504.72;5011996;28;1467;-12
2023/01/07 10:19:41;;;;;;;;;;;;;;;25.43;20.59;101504.84;5008518;28;1274;-11
2023/01/07 10:22:10;;;;;;;;;;;;;;;25.39;20.71;101506.16;5041615;28;1963;-12
2023/01/07 10:24:42;;;;;;;;;;;;;;;26.12;20.67;101493.50;5051104;28;1050;-13
2023/01/07 10:27:11;;;;;;;;;;;;;;;26.66;20.32;101491.59;5056339;28;1062;-12
2023/01/07 10:29:38;;;;;;;;;;;;;;;26.71;21.02;101491.13;5052613;28;1116;-12
2023/01/07 10:32:06;;;;;;;;;;;;;;;26.80;21.98;101486.59;5073898;28;1149;-12
2023/01/07 10:34:34;;;;;;;;;;;;;;;27.01;21.58;101480.75;5053003;28;1072;-12
2023/01/07 10:37:20;;;;;;;;;;;;;;;27.00;21.71;101473.69;5047583;28;1147;-13
2023/01/07 10:39:48;;;;;;;;;;;;;;;26.91;23.01;101475.50;5065877;28;1868;-12
2023/01/07 10:42:20;;;;;;;;;;;;;;;27.12;22.23;101476.94;5057616;28;1902;-12
2023/01/07 10:44:45;;;;;;;;;;;;;;;27.00;22.94;101468.28;5046839;28;1793;-13
2023/01/07 10:47:19;;;;;;;;;;;;;;;27.00;23.49;101468.28;5078338;28;1020;-12
2023/01/07 10:50:11;;;;;;;;;;;;;;;27.11;22.65;101469.88;5064508;28;1159;-13
2023/01/07 10:52:36;;;;;;;;;;;;;;;27.06;23.03;101466.81;5058067;28;1497;-12
2023/01/07 10:55:01;;;;;;;;;;;;;;;27.14;23.29;101467.66;5057849;28;1024;-12
2023/01/07 10:57:27;;;;;;;;;;;;;;;27.09;23.13;101467.31;5069660;28;1072;-13
2023/01/07 10:59:53;;;;;;;;;;;;;;;27.14;23.81;101454.16;5048072;28;1259;-13
2023/01/07 11:02:22;;;;;;;;;;;;;;;27.18;23.69;101462.78;5020057;28;1910;-13
2023/01/07 11:04:47;;;;;;;;;;;;;;;27.46;22.89;101464.34;5046480;28;1120;-12
2023/01/07 11:07:20;;;;;;;;;;;;;;;27.33;22.84;101454.88;5055922;28;1004;-13
2023/01/07 11:09:45;;;;;;;;;;;;;;;27.33;23.43;101454.00;5020348;28;989;-13
2023/01/07 11:12:29;;;;;;;;;;;;;;;27.61;23.09;101437.50;5038825;28;1108;-13
2023/01/07 11:14:55;;;;;;;;;;;;;;;27.37;23.06;101434.63;5045438;28;2563;-13
2023/01/07 11:17:37;;;;;;;;;;;;;;;27.44;23.57;101437.50;5039045;28;976;-12
2023/01/07 11:20:03;;;;;;;;;;;;;;;27.66;23.23;101436.97;5039580;28;1080;-12
2023/01/07 11:22:29;;;;;;;;;;;;;;;27.64;23.23;101429.03;5057759;28;1967;-13
2023/01/07 11:24:55;;;;;;;;;;;;;;;27.66;23.36;101424.28;5049481;28;1016;-13
2023/01/07 11:27:21;;;;;;;;;;;;;;;27.67;23.39;101414.31;5037017;28;1088;-13
2023/01/07 11:29:46;;;;;;;;;;;;;;;27.69;23.68;101420.44;5050829;28;1064;-13
2023/01/07 11:32:27;;;;;;;;;;;;;;;27.88;23.23;101430.03;5050061;28;1055;-13
2023/01/07 11:35:16;;;;;;;;;;;;;;;27.80;23.33;101430.91;5035914;28;1076;-12
2023/01/07 11:37:43;;;;;;;;;;;;;;;27.94;23.35;101428.53;5033732;28;1772;-13
2023/01/07 11:40:11;;;;;;;;;;;;;;;28.16;23.34;101424.22;5056450;28;1089;-13
2023/01/07 11:42:55;;;;;;;;;;;;;;;28.12;23.08;101417.47;5045811;28;1973;-13
2023/01/07 11:45:32;;;;;;;;;;;;;;;28.16;23.09;101418.81;5054107;28;1195;-13
2023/01/07 11:48:01;;;;;;;;;;;;;;;28.14;23.12;101425.41;5055144;28;1227;-13
2023/01/07 11:50:40;;;;;;;;;;;;;;;27.91;23.68;101426.16;5049340;28;973;-13
2023/01/07 11:53:14;;;;;;;;;;;;;;;28.47;23.07;101420.78;5035058;28;1033;-13
2023/01/07 11:55:40;;;;;;;;;;;;;;;28.30;23.14;101417.25;5047504;28;1121;-13
2023/01/07 11:58:08;;;;;;;;;;;;;;;28.14;23.39;101411.91;5041024;28;1261;-13
2023/01/07 12:00:33;;;;;;;;;;;;;;;28.09;23.58;101410.53;5038020;28;1322;-13
2023/01/07 12:03:11;;;;;;;;;;;;;;;27.96;23.75;101413.78;5037192;28;1979;-13
2023/01/07 12:05:37;;;;;;;;;;;;;;;28.43;23.32;101407.75;5050983;28;1084;-13
2023/01/07 12:08:03;;;;;;;;;;;;;;;28.30;23.69;101400.16;5047603;28;991;-13
2023/01/07 12:10:33;;;;;;;;;;;;;;;28.38;23.40;101404.75;5035809;28;1068;-13
2023/01/07 12:12:58;;;;;;;;;;;;;;;28.32;23.31;101398.13;5035238;28;1816;-13
2023/01/07 12:15:31;;;;;;;;;;;;;;;28.24;23.80;101401.72;5050039;28;1048;-13
2023/01/07 12:18:02;;;;;;;;;;;;;;;28.54;23.64;101399.25;5047727;28;1146;-13
2023/01/07 12:20:27;;;;;;;;;;;;;;;28.55;23.28;101383.84;5048351;28;1075;-13
2023/01/07 12:23:08;;;;;;;;;;;;;;;28.51;23.30;101396.88;5046701;28;1955;-13
2023/01/07 12:25:39;;;;;;;;;;;;;;;28.42;23.56;101400.66;5054055;28;1013;-13
2023/01/07 12:28:08;;;;;;;;;;;;;;;28.51;23.66;101393.34;5051627;28;1231;-13
2023/01/07 12:30:53;;;;;;;;;;;;;;;28.53;23.57;101394.03;5042393;28;995;-13
2023/01/07 12:33:37;;;;;;;;;;;;;;;28.74;23.27;101382.56;5056146;28;998;-13
2023/01/07 12:36:25;;;;;;;;;;;;;;;28.55;23.42;101384.69;5036579;28;1098;-13
2023/01/07 12:38:51;;;;;;;;;;;;;;;28.60;23.47;101384.16;5052655;28;1147;-13
2023/01/07 12:41:19;;;;;;;;;;;;;;;28.82;23.08;101389.78;5056018;28;1968;-13
2023/01/07 12:43:50;;;;;;;;;;;;;;;28.69;23.37;101393.94;5048419;28;1927;-13
2023/01/07 12:46:16;;;;;;;;;;;;;;;28.71;23.19;101391.88;5036099;28;980;-13
2023/01/07 12:48:44;;;;;;;;;;;;;;;28.83;22.98;101388.75;5048887;28;1051;-13
2023/01/07 12:51:12;;;;;;;;;;;;;;;28.87;22.93;101395.50;5050568;28;1087;-13